Time;durP1;ratioP1;P1;durP2;ratioP2;P2;SDS_P1;SDS_P2;PMS_P1;PMS_P2;Temp;Humidity;BMP_temperature;BMP_pressure;BME280_temperature;BME280_humidity;BME280_pressure;Samples;Min_cycle;Max_cycle;Signal;HPM_P1;HPM_P2
2022/07/28 00:01:45;;;;;;;0.20;0.20;;;17.10;99.90;17.90;101771.00;;;;5157945;27;20191;-64
2022/07/28 00:04:12;;;;;;;0.60;0.60;;;17.10;99.90;17.40;101755.00;;;;5157560;27;20174;-64
2022/07/28 00:06:37;;;;;;;0.20;0.20;;;16.80;99.90;18.00;101768.00;;;;5157263;27;20184;-64
2022/07/28 00:09:06;;;;;;;0.30;0.30;;;16.90;99.90;17.80;101744.00;;;;5138121;27;20195;-65
2022/07/28 00:11:36;;;;;;;0.30;0.30;;;16.90;99.90;17.60;101759.00;;;;5118486;27;20620;-65
2022/07/28 00:14:04;;;;;;;0.93;0.80;;;16.90;99.90;17.70;101750.00;;;;5136407;27;20182;-65
2022/07/28 00:16:58;;;;;;;0.20;0.20;;;16.90;99.90;17.90;101757.00;;;;5136959;27;20670;-65
2022/07/28 00:19:27;;;;;;;0.30;0.30;;;16.90;99.90;17.90;101757.00;;;;5115865;27;20217;-64
2022/07/28 00:21:59;;;;;;;0.27;0.27;;;16.90;99.90;17.50;101750.00;;;;5101399;27;20628;-64
2022/07/28 00:24:25;;;;;;;0.40;0.40;;;16.80;99.90;17.90;101752.00;;;;5118040;27;20179;-64
2022/07/28 00:26:53;;;;;;;0.20;0.20;;;16.80;99.90;17.70;101735.00;;;;5118262;27;20185;-64
2022/07/28 00:29:19;;;;;;;0.20;0.20;;;16.80;99.90;17.60;101721.00;;;;5136099;27;20169;-64
2022/07/28 00:31:45;;;;;;;0.20;0.20;;;16.70;99.90;17.70;101749.00;;;;5136327;27;20667;-64
2022/07/28 00:34:11;;;;;;;0.40;0.40;;;16.70;99.90;17.70;101717.00;;;;5118102;27;20181;-64
2022/07/28 00:36:40;;;;;;;0.20;0.20;;;16.70;99.90;17.60;101733.00;;;;5117500;27;20193;-64
2022/07/28 00:39:11;;;;;;;0.20;0.20;;;16.60;99.90;17.40;101731.00;;;;5136213;27;20172;-64
2022/07/28 00:41:37;;;;;;;0.53;0.53;;;16.60;99.90;17.50;101710.00;;;;5136276;27;20173;-64
2022/07/28 00:44:05;;;;;;;0.20;0.20;;;16.70;99.90;17.70;101744.00;;;;5135735;27;20545;-64
2022/07/28 00:46:37;;;;;;;0.20;0.20;;;16.70;99.90;18.20;101745.00;;;;5117142;27;20717;-65
2022/07/28 00:49:03;;;;;;;0.20;0.20;;;16.80;99.90;17.40;101735.00;;;;5117399;27;20206;-65
2022/07/28 01:27:02;;;;;;;0.20;0.20;;;16.50;99.90;17.30;101715.00;;;;5142309;27;20304;-65
2022/07/28 01:30:21;;;;;;;0.20;0.20;;;16.40;99.90;17.50;101710.00;;;;5120631;27;20645;-65
2022/07/28 01:33:06;;;;;;;0.43;0.43;;;16.40;99.90;17.80;101712.00;;;;5134929;27;20215;-65
2022/07/28 01:36:05;;;;;;;0.43;0.43;;;16.60;99.90;17.40;101696.00;;;;5115908;27;20168;-65
2022/07/28 02:04:54;;;;;;;0.20;0.20;;;16.20;99.90;16.70;101677.00;;;;5153346;27;20182;-65
2022/07/28 02:07:28;;;;;;;1.03;1.03;;;16.10;99.90;17.10;101690.00;;;;5154603;27;20178;-65
2022/07/28 02:09:59;;;;;;;0.30;0.30;;;16.10;99.90;17.30;101698.00;;;;5136911;27;20228;-65
2022/07/28 02:12:32;;;;;;;0.30;0.30;;;16.20;99.90;16.90;101693.00;;;;5135810;27;20230;-65
2022/07/28 02:15:01;;;;;;;0.77;0.57;;;16.10;99.90;16.50;101660.00;;;;5137315;27;20258;-65
2022/07/28 02:17:30;;;;;;;0.30;0.30;;;16.00;99.90;16.80;101638.00;;;;5136559;27;20604;-65
2022/07/28 02:19:58;;;;;;;0.40;0.40;;;15.90;99.90;16.40;101649.00;;;;5119903;27;20686;-64
2022/07/28 02:22:26;;;;;;;0.37;0.37;;;15.80;99.90;16.50;101675.00;;;;5154968;27;20186;-65
2022/07/28 02:24:54;;;;;;;0.40;0.40;;;15.80;99.90;17.00;101678.00;;;;5136584;27;20208;-65
2022/07/28 02:27:49;;;;;;;0.20;0.20;;;15.90;99.90;16.80;101681.00;;;;5136697;27;20696;-65
2022/07/28 02:30:34;;;;;;;0.30;0.30;;;15.90;99.90;17.30;101680.00;;;;5154895;27;20171;-65
2022/07/28 02:33:10;;;;;;;0.27;0.27;;;16.00;99.90;16.70;101666.00;;;;5136605;27;20217;-65
2022/07/28 02:36:13;;;;;;;0.63;0.63;;;15.90;99.90;16.30;101659.00;;;;5136257;27;20200;-65
2022/07/28 02:38:44;;;;;;;0.30;0.30;;;15.80;99.90;17.00;101673.00;;;;5132640;27;20205;-65
2022/07/28 02:41:25;;;;;;;0.20;0.20;;;15.80;99.90;17.40;101667.00;;;;5136336;27;20238;-65
2022/07/28 02:44:10;;;;;;;0.27;0.27;;;16.00;99.90;16.80;101660.00;;;;5136243;27;20174;-65
2022/07/28 02:46:50;;;;;;;0.20;0.20;;;15.90;99.90;16.50;101660.00;;;;5119623;27;20214;-65
2022/07/28 02:49:32;;;;;;;0.30;0.30;;;15.80;99.90;16.90;101661.00;;;;5154679;27;20201;-64
2022/07/28 02:52:07;;;;;;;0.30;0.30;;;15.80;99.90;16.40;101608.00;;;;5119282;27;20203;-64
2022/07/28 02:54:34;;;;;;;0.30;0.30;;;15.60;99.90;16.90;101661.00;;;;5136885;27;20642;-64
2022/07/28 02:57:03;;;;;;;0.30;0.30;;;15.70;99.90;17.10;101671.00;;;;5130482;28;20199;-65
2022/07/28 02:59:30;;;;;;;0.30;0.30;;;15.80;99.90;16.90;101661.00;;;;5116102;28;20188;-64
2022/07/28 03:02:00;;;;;;;0.30;0.30;;;15.80;99.90;16.80;101661.00;;;;5134565;28;20170;-65
2022/07/28 03:07:15;;;;;;;0.77;0.43;;;15.70;99.90;16.90;101661.00;;;;5118405;28;20190;-65
2022/07/28 03:09:52;;;;;;;0.70;0.40;;;15.70;99.90;16.90;101657.00;;;;5116201;28;20180;-65
2022/07/28 03:12:18;;;;;;;0.87;0.70;;;15.70;99.90;16.70;101669.00;;;;5115792;28;20281;-65
2022/07/28 03:14:51;;;;;;;0.30;0.30;;;15.70;99.90;16.90;101663.00;;;;5133544;28;20180;-65
2022/07/28 03:17:20;;;;;;;0.30;0.30;;;15.70;99.90;17.10;101664.00;;;;5098596;27;20273;-65
2022/07/28 03:19:51;;;;;;;0.40;0.40;;;15.80;99.90;16.90;101664.00;;;;5137687;27;20543;-65
2022/07/28 03:22:20;;;;;;;0.30;0.30;;;15.70;99.90;16.90;101658.00;;;;5137841;27;20191;-65
2022/07/28 03:24:51;;;;;;;0.30;0.30;;;15.70;99.90;16.50;101658.00;;;;5137658;27;20208;-65
2022/07/28 03:27:37;;;;;;;0.30;0.30;;;15.60;99.90;16.90;101673.00;;;;5119350;27;20184;-65
2022/07/28 03:30:15;;;;;;;0.60;0.60;;;15.50;99.90;17.00;101677.00;;;;5119440;27;20168;-64
2022/07/28 03:32:52;;;;;;;0.30;0.30;;;15.70;99.90;17.10;101683.00;;;;5137443;27;20211;-64
2022/07/28 03:35:18;;;;;;;0.40;0.40;;;15.80;99.90;16.50;101665.00;;;;5137423;27;20265;-64
2022/07/28 03:38:23;;;;;;;0.30;0.30;;;15.60;99.90;16.20;101653.00;;;;5119157;27;20306;-65
2022/07/28 03:40:54;;;;;;;0.50;0.50;;;15.40;99.90;16.00;101652.00;;;;5119106;27;20166;-65
2022/07/28 03:43:27;;;;;;;0.40;0.40;;;15.30;99.90;16.40;101650.00;;;;5118657;27;20204;-65
2022/07/28 03:45:56;;;;;;;0.50;0.50;;;15.30;99.90;15.70;101646.00;;;;5119551;27;20176;-65
2022/07/28 03:48:36;;;;;;;0.40;0.40;;;15.20;99.90;15.40;101639.00;;;;5137096;27;20263;-65
2022/07/28 03:51:01;;;;;;;2.83;0.87;;;15.00;99.90;15.80;101643.00;;;;5137111;27;20178;-65
2022/07/28 03:53:28;;;;;;;0.30;0.30;;;15.00;99.90;15.60;101644.00;;;;5137130;27;20183;-65
2022/07/28 03:55:58;;;;;;;0.30;0.30;;;14.90;99.90;15.80;101652.00;;;;5118850;27;20212;-65
2022/07/28 03:58:27;;;;;;;0.30;0.30;;;15.00;99.90;15.60;101643.00;;;;5118739;27;20165;-65
2022/07/28 04:00:57;;;;;;;0.50;0.50;;;14.90;99.90;15.70;101641.00;;;;5149268;27;20667;-64
2022/07/28 04:03:26;;;;;;;137.90;15.23;;;14.90;99.90;15.70;101616.00;;;;5157543;27;20185;-65
2022/07/28 04:05:57;;;;;;;0.30;0.30;;;14.90;99.90;15.30;101639.00;;;;5138927;27;20205;-65
2022/07/28 04:08:26;;;;;;;0.30;0.30;;;14.80;99.90;15.50;101634.00;;;;5139378;27;20557;-65
2022/07/28 04:10:52;;;;;;;0.30;0.30;;;14.70;99.90;15.50;101637.00;;;;5139061;27;20180;-65
2022/07/28 04:13:19;;;;;;;0.20;0.20;;;14.70;99.90;15.90;101647.00;;;;5138558;27;20566;-65
2022/07/28 04:15:45;;;;;;;0.40;0.40;;;14.80;99.90;15.50;101640.00;;;;5139074;27;20224;-64
2022/07/28 04:18:29;;;;;;;0.40;0.40;;;14.80;99.90;16.30;101650.00;;;;5157540;27;20642;-64
2022/07/28 04:20:59;;;;;;;0.70;0.30;;;15.00;99.90;16.30;101654.00;;;;5121867;27;20175;-65
2022/07/28 04:23:34;;;;;;;0.30;0.30;;;15.20;99.90;15.60;101641.00;;;;5155082;27;20228;-65
2022/07/28 04:26:03;;;;;;;0.30;0.30;;;14.90;99.90;16.30;101620.00;;;;5157409;27;20169;-65
2022/07/28 04:28:32;;;;;;;0.30;0.30;;;15.00;99.90;16.30;101625.00;;;;5121633;27;20177;-65
2022/07/28 04:30:58;;;;;;;0.30;0.30;;;15.10;99.90;16.00;101644.00;;;;5138649;27;20257;-64
2022/07/28 04:33:24;;;;;;;0.70;0.70;;;15.00;99.90;16.00;101642.00;;;;5156794;27;20313;-64
2022/07/28 04:35:57;;;;;;;0.57;0.57;;;15.00;99.90;15.80;101639.00;;;;5138555;27;20181;-65
2022/07/28 04:39:00;;;;;;;0.87;0.50;;;15.00;99.90;16.00;101625.00;;;;5156891;27;20182;-64
2022/07/28 04:41:28;;;;;;;0.83;0.83;;;15.00;99.90;15.30;101584.00;;;;5156589;27;20182;-64
2022/07/28 04:43:54;;;;;;;0.30;0.30;;;14.70;99.90;15.50;101622.00;;;;5138120;27;20206;-65
2022/07/28 04:46:23;;;;;;;0.30;0.30;;;14.80;99.90;15.80;101626.00;;;;5156995;27;20640;-65
2022/07/28 04:48:51;;;;;;;1.70;1.23;;;14.80;99.90;16.20;101630.00;;;;5138296;27;20184;-65
2022/07/28 04:51:54;;;;;;;0.50;0.50;;;15.00;99.90;15.80;101627.00;;;;5156774;27;20747;-65
2022/07/28 04:54:29;;;;;;;0.30;0.30;;;15.00;99.90;15.90;101616.00;;;;5140513;27;20253;-65
2022/07/28 04:57:07;;;;;;;0.30;0.30;;;15.00;99.90;15.90;101624.00;;;;5156452;27;20241;-65
2022/07/28 04:59:34;;;;;;;1.13;0.97;;;15.00;99.90;16.00;101635.00;;;;5139283;27;20175;-65
2022/07/28 05:02:14;;;;;;;0.30;0.30;;;15.10;99.90;15.70;101626.00;;;;5156632;27;20177;-65
2022/07/28 05:04:40;;;;;;;0.50;0.50;;;15.10;99.90;15.90;101624.00;;;;5131261;27;20202;-65
2022/07/28 05:07:23;;;;;;;0.37;0.37;;;15.10;99.90;16.30;101635.00;;;;5137327;27;20203;-65
2022/07/28 05:10:26;;;;;;;0.47;0.47;;;15.20;99.90;15.70;101592.00;;;;5137797;27;20178;-65
2022/07/28 05:13:20;;;;;;;0.57;0.57;;;15.00;99.90;16.20;101629.00;;;;5137654;27;20701;-65
2022/07/28 05:15:49;;;;;;;0.50;0.50;;;15.20;99.90;16.10;101635.00;;;;5156062;27;20175;-65
2022/07/28 05:18:16;;;;;;;0.40;0.40;;;15.10;99.90;16.20;101618.00;;;;5156529;27;20177;-65
2022/07/28 05:20:41;;;;;;;0.43;0.43;;;15.10;99.90;16.20;101630.00;;;;5145229;27;20208;-65
2022/07/28 05:23:10;;;;;;;0.40;0.40;;;15.20;99.90;16.00;101634.00;;;;5135743;27;20630;-65
2022/07/28 05:25:38;;;;;;;0.40;0.40;;;15.20;99.90;16.20;101592.00;;;;5117089;27;20270;-65
2022/07/28 05:28:04;;;;;;;0.30;0.30;;;15.10;99.90;16.10;101637.00;;;;5135687;27;20173;-65
2022/07/28 05:30:30;;;;;;;0.30;0.30;;;15.10;99.90;16.30;101633.00;;;;5135018;27;20205;-65
2022/07/28 05:33:03;;;;;;;0.30;0.30;;;15.20;99.90;16.40;101640.00;;;;5135019;27;20642;-65
2022/07/28 05:35:35;;;;;;;0.30;0.30;;;15.30;99.90;16.60;101640.00;;;;5154645;27;20657;-65
2022/07/28 05:38:01;;;;;;;0.30;0.30;;;15.30;99.90;16.90;101651.00;;;;5156063;27;20171;-65
2022/07/28 05:40:27;;;;;;;0.40;0.40;;;15.50;99.90;16.30;101646.00;;;;5155507;27;20185;-65
2022/07/28 05:43:12;;;;;;;1.33;1.23;;;15.50;99.90;16.60;101628.00;;;;5155592;27;20170;-65
2022/07/28 05:45:38;;;;;;;0.40;0.40;;;15.50;99.90;17.20;101656.00;;;;5137232;27;20182;-65
2022/07/28 05:48:24;;;;;;;0.20;0.20;;;15.90;99.90;18.40;101678.00;;;;5155980;27;20182;-65
2022/07/28 05:50:59;;;;;;;0.20;0.20;;;16.50;99.90;19.40;101710.00;;;;5155634;27;20178;-65
2022/07/28 05:53:25;;;;;;;0.10;0.10;;;17.60;99.90;19.60;101710.00;;;;5133195;27;20547;-65
2022/07/28 05:56:11;;;;;;;0.10;0.10;;;18.00;99.90;19.60;101724.00;;;;5155456;27;20680;-65
2022/07/28 05:58:57;;;;;;;0.30;0.30;;;18.50;99.90;20.90;101741.00;;;;5155414;27;20203;-65
2022/07/28 06:01:23;;;;;;;0.38;0.38;;;19.30;99.90;20.00;101712.00;;;;5137057;27;20214;-65
2022/07/28 06:03:51;;;;;;;0.43;0.30;;;19.30;99.90;21.10;101748.00;;;;5155461;27;20274;-65
2022/07/28 06:06:20;;;;;;;0.10;0.10;;;19.60;99.90;20.60;101752.00;;;;5155125;27;20167;-65
2022/07/28 06:08:53;;;;;;;0.20;0.20;;;19.70;99.90;20.80;101764.00;;;;5155306;27;20182;-65
2022/07/28 06:12:02;;;;;;;0.30;0.30;;;20.10;99.90;21.00;101737.00;;;;5155097;27;20167;-65
2022/07/28 06:14:28;;;;;;;0.10;0.10;;;19.50;99.90;21.40;101763.00;;;;5154389;27;20245;-65
2022/07/28 06:16:54;;;;;;;0.13;0.13;;;19.90;99.90;23.50;101784.00;;;;5155250;27;20167;-63
2022/07/28 06:19:21;;;;;;;0.70;0.57;;;21.10;99.90;20.60;101785.00;;;;5155136;27;20171;-65
2022/07/28 06:21:46;;;;;;;0.20;0.20;;;21.00;99.90;21.00;101780.00;;;;5136433;27;20637;-65
2022/07/28 06:24:13;;;;;;;1.67;0.70;;;20.30;99.90;21.90;101783.00;;;;5136486;27;20179;-63
2022/07/28 06:26:44;;;;;;;0.20;0.20;;;20.80;99.90;20.80;101774.00;;;;5154854;27;20179;-66
2022/07/28 06:29:29;;;;;;;0.50;0.50;;;20.00;99.90;22.60;101768.00;;;;5137053;27;20226;-64
2022/07/28 06:31:55;;;;;;;0.32;0.32;;;21.20;99.90;24.70;101802.00;;;;5154837;27;20664;-64
2022/07/28 06:34:21;;;;;;;0.38;0.38;;;22.40;99.90;22.70;101788.00;;;;5136525;27;20191;-65
2022/07/28 06:36:47;;;;;;;0.20;0.20;;;22.20;99.90;20.60;101785.00;;;;5154975;27;20223;-64
2022/07/28 06:39:13;;;;;;;0.10;0.10;;;20.40;99.90;21.20;101782.00;;;;5154760;27;20179;-65
2022/07/28 06:41:42;;;;;;;15.27;1.63;;;19.80;99.90;19.60;101760.00;;;;5154961;27;20178;-65
2022/07/28 06:44:12;;;;;;;0.47;0.47;;;19.20;99.90;19.20;101735.00;;;;5136453;27;20353;-65
2022/07/28 06:46:42;;;;;;;0.10;0.10;;;18.70;99.90;18.90;101735.00;;;;5154716;27;20213;-65
2022/07/28 06:49:11;;;;;;;0.20;0.20;;;18.10;99.90;20.00;101708.00;;;;5136561;27;20181;-66
2022/07/28 06:51:56;;;;;;;0.30;0.30;;;18.40;99.90;20.00;101747.00;;;;5127678;27;20198;-65
2022/07/28 06:54:21;;;;;;;0.47;0.47;;;18.60;99.90;19.60;101728.00;;;;5136566;27;20185;-65
2022/07/28 06:56:47;;;;;;;0.10;0.10;;;18.40;99.90;20.30;101746.00;;;;5159319;27;20304;-66
2022/07/28 06:59:14;;;;;;;1.33;0.73;;;18.70;99.90;20.90;101760.00;;;;5140615;27;20188;-66
2022/07/28 07:01:40;;;;;;;1.50;1.40;;;19.30;99.90;20.10;101728.00;;;;5123763;27;20190;-65
2022/07/28 07:04:09;;;;;;;0.20;0.20;;;19.20;99.90;20.60;101760.00;;;;5158664;27;20182;-65
2022/07/28 07:06:59;;;;;;;0.28;0.28;;;19.20;99.90;20.10;101760.00;;;;5123647;27;20199;-65
2022/07/28 07:09:27;;;;;;;0.10;0.10;;;19.00;99.90;20.80;101736.00;;;;5112280;27;20208;-65
2022/07/28 07:12:30;;;;;;;0.43;0.40;;;19.10;99.90;20.30;101760.00;;;;5137164;27;20287;-65
2022/07/28 07:15:05;;;;;;;0.30;0.30;;;19.10;99.90;20.10;101730.00;;;;5146336;27;20197;-65
2022/07/28 07:17:54;;;;;;;0.30;0.30;;;18.70;99.90;19.80;101744.00;;;;5140130;27;20317;-65
2022/07/28 07:20:22;;;;;;;0.60;0.60;;;18.70;99.90;19.80;101732.00;;;;5142482;27;20631;-65
2022/07/28 07:22:57;;;;;;;0.50;0.50;;;18.70;99.90;20.70;101748.00;;;;5139686;27;20273;-65
2022/07/28 07:25:25;;;;;;;0.13;0.13;;;19.00;99.90;20.50;101747.00;;;;5140275;27;20631;-65
2022/07/28 07:27:53;;;;;;;0.10;0.10;;;19.00;99.90;20.90;101753.00;;;;5139815;27;20226;-65
2022/07/28 07:30:28;;;;;;;0.22;0.22;;;19.30;99.90;20.00;101732.00;;;;5157338;27;20190;-65
2022/07/28 07:33:42;;;;;;;0.10;0.10;;;19.10;99.90;20.80;101723.00;;;;5157988;27;20230;-65
2022/07/28 07:36:11;;;;;;;0.20;0.20;;;19.10;99.90;20.80;101757.00;;;;5141006;27;20388;-65
2022/07/28 07:39:01;;;;;;;0.30;0.30;;;19.50;99.90;20.50;101744.00;;;;5140193;27;20196;-65
2022/07/28 07:41:27;;;;;;;2.20;0.93;;;19.60;99.90;20.30;101748.00;;;;5139960;27;20182;-65
2022/07/28 07:44:11;;;;;;;0.52;0.30;;;19.70;99.90;21.40;101761.00;;;;5149948;27;20267;-65
2022/07/28 07:46:38;;;;;;;1.20;0.75;;;19.80;99.90;19.70;101742.00;;;;5119302;27;20183;-65
2022/07/28 07:49:24;;;;;;;0.10;0.10;;;19.50;99.90;21.80;101756.00;;;;5119126;27;20185;-66
2022/07/28 07:52:01;;;;;;;0.10;0.10;;;20.00;99.90;23.70;101773.00;;;;5135935;27;20286;-66
2022/07/28 07:54:44;;;;;;;0.20;0.20;;;21.40;99.90;23.30;101773.00;;;;5135585;27;20190;-72
2022/07/28 07:57:18;;;;;;;0.20;0.20;;;21.90;99.90;22.00;101760.00;;;;5121561;27;20229;-69
2022/07/28 08:00:20;;;;;;;0.38;0.38;;;21.30;99.90;22.50;101762.00;;;;5119066;27;20176;-69
2022/07/28 08:03:26;;;;;;;2.05;0.60;;;21.50;99.90;20.30;101736.00;;;;5138498;27;20185;-69
2022/07/28 08:06:49;;;;;;;0.88;0.77;;;20.30;99.90;20.50;101735.00;;;;5138651;27;20174;-69
2022/07/28 08:09:33;;;;;;;3.58;0.98;;;19.70;99.90;21.20;101732.00;;;;5120152;27;20701;-69
2022/07/28 08:12:24;;;;;;;2.10;0.95;;;20.10;99.90;21.30;101725.00;;;;5138945;27;20769;-69
2022/07/28 08:15:09;;;;;;;5.47;1.38;;;20.30;99.90;22.30;101749.00;;;;5138676;27;20231;-69
2022/07/28 08:17:50;;;;;;;0.82;0.50;;;21.20;99.90;22.50;101740.00;;;;5138716;27;20164;-69
2022/07/28 08:20:25;;;;;;;0.60;0.55;;;21.30;99.90;22.60;101749.00;;;;5138515;27;20210;-70
2022/07/28 08:23:19;;;;;;;0.28;0.20;;;21.60;99.90;22.50;101743.00;;;;5138646;27;20175;-70
2022/07/28 08:25:45;;;;;;;0.50;0.50;;;21.30;99.90;23.00;101747.00;;;;5157284;27;20524;-69
2022/07/28 08:28:32;;;;;;;1.58;0.40;;;21.70;99.90;23.90;101743.00;;;;5156961;27;20174;-69
2022/07/28 08:31:02;;;;;;;0.20;0.20;;;22.60;99.90;25.10;101751.00;;;;5138602;27;20529;-69
2022/07/28 08:33:31;;;;;;;0.30;0.30;;;23.60;99.90;25.10;101759.00;;;;5138181;27;20210;-69
2022/07/28 08:35:57;;;;;;;0.10;0.10;;;23.70;99.90;25.10;101735.00;;;;5138024;27;20179;-69
2022/07/28 08:38:41;;;;;;;0.55;0.50;;;23.80;99.90;21.90;101724.00;;;;5156937;27;20171;-68
2022/07/28 08:41:17;;;;;;;0.77;0.77;;;22.20;99.90;22.10;101752.00;;;;5117606;27;20176;-69
2022/07/28 08:43:45;;;;;;;1.58;0.73;;;21.60;99.90;22.80;101762.00;;;;5135695;27;20214;-68
2022/07/28 08:46:12;;;;;;;0.20;0.20;;;21.80;99.90;22.90;101764.00;;;;5117671;27;20238;-68
2022/07/28 08:48:58;;;;;;;0.17;0.17;;;22.10;99.90;25.30;101772.00;;;;5117572;27;20186;-68
2022/07/28 08:51:32;;;;;;;0.20;0.20;;;23.10;99.90;23.70;101756.00;;;;5117702;27;20183;-68
2022/07/28 08:54:02;;;;;;;0.28;0.28;;;23.10;99.90;24.10;101787.00;;;;5117459;27;20653;-68
2022/07/28 08:56:30;;;;;;;0.30;0.30;;;23.00;99.90;23.70;101784.00;;;;5117419;27;20184;-68
2022/07/28 08:59:03;;;;;;;0.20;0.20;;;22.90;99.90;24.90;101784.00;;;;5135731;27;20163;-69
2022/07/28 09:01:50;;;;;;;0.10;0.10;;;23.30;99.90;25.00;101773.00;;;;5156683;27;20174;-69
2022/07/28 09:04:17;;;;;;;0.10;0.10;;;23.50;99.90;26.80;101776.00;;;;5122247;27;20270;-69
2022/07/28 09:06:43;;;;;;;1.55;0.47;;;24.70;99.90;25.20;101779.00;;;;5156907;27;20175;-69
2022/07/28 09:09:09;;;;;;;0.60;0.60;;;24.80;99.90;25.00;101755.00;;;;5137562;27;20209;-69
2022/07/28 09:11:53;;;;;;;0.35;0.35;;;24.10;99.90;24.80;101776.00;;;;5120699;27;20537;-68
2022/07/28 09:14:36;;;;;;;0.30;0.30;;;23.80;99.90;25.20;101739.00;;;;5137749;27;20190;-69
2022/07/28 09:17:11;;;;;;;1.23;0.30;;;23.90;99.90;25.50;101776.00;;;;5119914;27;20179;-69
2022/07/28 09:19:55;;;;;;;0.47;0.47;;;24.60;99.90;23.70;101772.00;;;;5137420;27;20259;-69
2022/07/28 09:22:26;;;;;;;0.20;0.20;;;23.30;99.90;25.00;101767.00;;;;5134567;27;20659;-69
2022/07/28 09:24:53;;;;;;;1.85;0.60;;;24.00;99.90;23.30;101764.00;;;;5120553;27;20167;-69
2022/07/28 09:27:21;;;;;;;0.52;0.52;;;23.20;99.90;23.70;101758.00;;;;5137541;27;20701;-69
2022/07/28 09:29:58;;;;;;;1.00;0.90;;;22.90;99.90;24.40;101738.00;;;;5136752;27;20167;-69
2022/07/28 09:32:28;;;;;;;0.20;0.20;;;23.50;99.90;25.60;101769.00;;;;5151898;27;20558;-69
2022/07/28 09:35:18;;;;;;;0.15;0.13;;;24.00;99.90;25.60;101766.00;;;;5156090;27;20182;-70
2022/07/28 09:37:58;;;;;;;0.20;0.20;;;24.80;99.90;25.50;101774.00;;;;5119821;27;20649;-69
2022/07/28 09:40:24;;;;;;;1.83;1.13;;;24.50;99.90;25.00;101771.00;;;;5119835;27;20181;-72
2022/07/28 09:42:57;;;;;;;0.32;0.32;;;24.60;99.90;25.70;101756.00;;;;5120495;27;20186;-69
2022/07/28 09:45:27;;;;;;;0.40;0.40;;;24.30;99.90;26.40;101752.00;;;;5137158;27;20582;-69
2022/07/28 09:48:12;;;;;;;1.98;0.68;;;25.10;99.90;24.70;101773.00;;;;5155543;27;20178;-69
2022/07/28 09:50:42;;;;;;;0.10;0.10;;;24.20;99.90;25.80;101767.00;;;;5137282;27;20174;-69
2022/07/28 09:53:23;;;;;;;1.58;0.47;;;24.20;99.90;24.60;101766.00;;;;5119721;27;20191;-69
2022/07/28 09:55:59;;;;;;;0.40;0.40;;;24.10;99.90;25.50;101756.00;;;;5136993;27;20766;-69
2022/07/28 09:59:16;;;;;;;0.35;0.25;;;24.30;99.90;25.10;101747.00;;;;5136262;27;20261;-69
2022/07/28 10:02:01;;;;;;;3.45;2.38;;;24.10;99.90;26.90;101724.00;;;;5152616;27;20178;-70
2022/07/28 10:04:58;;;;;;;0.63;0.63;;;24.80;99.90;26.00;101750.00;;;;5137029;27;20171;-70
2022/07/28 10:07:33;;;;;;;0.45;0.30;;;25.10;99.90;25.00;101728.00;;;;5155149;27;20171;-70
2022/07/28 10:10:06;;;;;;;3.60;0.75;;;24.70;99.90;25.90;101728.00;;;;5136598;27;20404;-69
2022/07/28 10:12:35;;;;;;;0.10;0.10;;;24.60;99.90;26.40;101738.00;;;;5137036;27;20278;-71
2022/07/28 10:18:05;;;;;;;0.20;0.20;;;25.20;99.90;26.10;101705.00;;;;5139803;27;20189;-67
2022/07/28 10:20:32;;;;;;;0.45;0.45;;;25.10;99.90;26.10;101696.00;;;;5136529;27;20224;-68
2022/07/28 10:33:19;;;;;;;2.92;1.35;;;24.10;99.90;24.20;101729.00;;;;5113170;27;1334202;-68
2022/07/28 10:36:03;;;;;;;0.80;0.73;;;23.30;99.90;26.20;101715.00;;;;5130667;28;20179;-68
2022/07/28 10:38:36;;;;;;;0.25;0.25;;;24.40;99.90;27.00;101701.00;;;;5112228;28;20180;-68
2022/07/28 10:41:06;;;;;;;0.30;0.30;;;25.30;99.90;25.60;101701.00;;;;5119841;28;20172;-65
2022/07/28 10:44:12;;;;;;;0.40;0.40;;;24.70;99.90;25.90;101698.00;;;;5109666;28;20544;-65
2022/07/28 10:47:16;;;;;;;3.60;3.30;;;24.70;99.90;27.10;101698.00;;;;5111162;28;20226;-65
2022/07/28 10:50:43;;;;;;;0.30;0.30;;;25.30;99.90;26.90;101684.00;;;;5093516;28;20199;-66
2022/07/28 10:57:09;;;;;;;0.57;0.40;;;24.90;99.90;24.10;101681.00;;;;5111335;28;20310;-65
2022/07/28 11:00:16;;;;;;;0.20;0.20;;;24.10;99.90;24.20;101691.00;;;;5110487;28;20515;-65
2022/07/28 11:19:00;;;;;;;;;;;;;;;;;;;;;
2022/07/28 11:26:07;;;;;;;0.40;0.40;;;23.70;99.90;26.20;101680.00;;;;5008450;28;20178;-65
2022/07/28 11:29:18;;;;;;;0.20;0.10;;;24.30;99.90;25.90;101674.00;;;;5006610;28;20192;-65
2022/07/28 11:32:52;;;;;;;0.13;0.13;;;24.60;99.90;25.00;101679.00;;;;4991681;28;20280;-65
2022/07/28 11:35:25;;;;;;;0.47;0.47;;;24.30;99.90;24.20;101679.00;;;;4998397;28;20232;-65
2022/07/28 11:38:03;;;;;;;0.10;0.10;;;24.00;99.90;25.80;101655.00;;;;5006991;28;20666;-65
2022/07/28 11:40:59;;;;;;;4.95;0.65;;;24.20;99.90;25.70;101666.00;;;;5013351;28;20213;-65
2022/07/28 11:43:46;;;;;;;0.75;0.22;;;24.70;99.90;26.70;101655.00;;;;5014323;28;20205;-66
2022/07/28 11:46:29;;;;;;;0.30;0.30;;;25.20;99.90;25.70;101661.00;;;;5028449;28;20202;-65
2022/07/28 11:49:19;;;;;;;0.65;0.57;;;24.80;99.90;25.10;101676.00;;;;5032958;28;20190;-65
2022/07/28 11:52:15;;;;;;;0.55;0.55;;;24.00;99.90;25.70;101663.00;;;;5049437;28;20714;-65
2022/07/28 12:58:39;;;;;;;0.40;0.40;;;24.70;99.90;25.50;101624.00;;;;5054580;28;20275;-65
2022/07/28 13:01:50;;;;;;;0.25;0.25;;;24.90;99.90;25.10;101632.00;;;;5035882;28;20201;-65
2022/07/28 13:04:46;;;;;;;0.20;0.20;;;24.60;99.90;25.90;101632.00;;;;5025048;28;20202;-65
2022/07/28 13:08:00;;;;;;;0.95;0.73;;;24.30;99.90;26.10;101618.00;;;;5036552;28;20572;-65
2022/07/28 13:10:48;;;;;;;2.00;0.88;;;24.50;99.90;25.40;101638.00;;;;5052606;28;20189;-65
2022/07/28 13:13:47;;;;;;;1.73;0.80;;;24.40;99.90;24.60;101642.00;;;;5021288;28;20672;-65
2022/07/28 13:16:36;;;;;;;0.80;0.77;;;23.90;99.90;24.80;101643.00;;;;5036414;28;20186;-65
2022/07/28 13:19:20;;;;;;;3.50;0.75;;;23.80;99.90;24.80;101622.00;;;;5036845;28;20186;-65
2022/07/28 13:22:01;;;;;;;0.30;0.30;;;23.80;99.90;24.30;101649.00;;;;5027837;28;20193;-65
2022/07/28 13:24:37;;;;;;;0.43;0.38;;;23.50;99.90;24.40;101640.00;;;;5038795;28;20652;-65
2022/07/28 13:27:31;;;;;;;0.25;0.25;;;23.60;99.90;25.00;101636.00;;;;5039082;28;20189;-65
2022/07/28 13:30:01;;;;;;;0.20;0.20;;;23.50;99.90;25.10;101633.00;;;;5038722;28;20188;-65
2022/07/28 13:32:39;;;;;;;0.20;0.20;;;23.80;99.90;25.50;101607.00;;;;5038903;28;20228;-65
2022/07/28 13:35:28;;;;;;;0.10;0.10;;;24.00;99.90;26.50;101627.00;;;;5039432;28;20258;-65
2022/07/28 13:37:54;;;;;;;0.30;0.30;;;24.60;99.90;25.90;101618.00;;;;5038507;28;20275;-65
2022/07/28 13:40:29;;;;;;;0.60;0.60;;;24.60;99.90;26.10;101632.00;;;;5039229;28;20227;-65
2022/07/28 13:42:55;;;;;;;0.25;0.25;;;24.50;99.90;26.40;101591.00;;;;5037669;28;20204;-65
2022/07/28 13:45:37;;;;;;;0.10;0.10;;;24.70;99.90;26.50;101609.00;;;;5023581;28;20216;-65
2022/07/28 13:48:16;;;;;;;0.20;0.20;;;24.80;99.90;26.40;101604.00;;;;5039319;28;20667;-65
2022/07/28 13:51:02;;;;;;;0.20;0.20;;;25.00;99.90;26.10;101608.00;;;;5038289;28;20193;-65
2022/07/28 13:53:51;;;;;;;0.70;0.43;;;24.60;99.90;25.00;101618.00;;;;5017094;28;20234;-65
2022/07/28 13:56:42;;;;;;;0.17;0.17;;;24.20;99.90;25.60;101616.00;;;;5025286;28;20206;-65
2022/07/28 13:59:46;;;;;;;0.38;0.38;;;24.30;99.90;26.00;101609.00;;;;5032426;28;20190;-65
2022/07/28 14:02:33;;;;;;;0.95;0.73;;;24.20;99.90;25.20;101616.00;;;;5015666;28;20186;-65
2022/07/28 14:05:34;;;;;;;0.38;0.38;;;24.20;99.90;25.80;101590.00;;;;5000104;28;20197;-65
2022/07/28 14:08:18;;;;;;;0.40;0.40;;;24.10;99.90;25.20;101600.00;;;;5015971;28;20552;-65
2022/07/28 14:11:10;;;;;;;0.80;0.80;;;24.30;99.90;25.10;101609.00;;;;5015660;28;20654;-65
2022/07/28 14:14:23;;;;;;;1.30;1.20;;;24.10;99.90;24.80;101614.00;;;;5015460;28;20190;-65
2022/07/28 14:17:14;;;;;;;2.45;0.95;;;24.10;99.90;25.00;101594.00;;;;5015928;28;20203;-65
2022/07/28 14:20:00;;;;;;;0.50;0.50;;;24.00;99.90;25.50;101613.00;;;;5020714;28;20251;-65